Аэропорт: Сокол. Магадан

ICAO: UHMM

METAR:
2019/05/26 14:00
UHMM 261400Z 07002MPS 9999 -SHRA FEW010 OVC027CB 04/03 Q1007 RMK QFE741
METAR:
2019/05/26 12:21
TAF UHMM 261046Z 2612/2718 10003G10MPS 3100 -SHRA BR SCT008 OVC015CB 
      TEMPO 2613/2624 0400 FG VV003 
     FM270000 23003G08MPS 9999 SCT011 OVC020CB 
      TEMPO 2700/2710 27003G10MPS 3100 -SHRA BR VV009